createdAt,value
2022-07-31T00:02:07.735Z,98312.81
2022-07-31T00:04:34.310Z,98312.88
2022-07-31T00:07:01.228Z,98307.72
2022-07-31T00:09:45.506Z,98296.50
2022-07-31T00:12:17.545Z,98304.88
2022-07-31T00:14:45.093Z,98296.63
2022-07-31T00:17:11.750Z,98311.69
2022-07-31T00:19:38.597Z,98302.41
2022-07-31T00:22:05.236Z,98306.00
2022-07-31T00:24:34.493Z,98301.06
2022-07-31T00:27:01.724Z,98325.34
2022-07-31T00:29:28.603Z,98316.56
2022-07-31T00:31:55.164Z,98325.22
2022-07-31T00:34:21.775Z,98304.16
2022-07-31T00:36:48.845Z,98326.22
2022-07-31T00:39:15.705Z,98305.53
2022-07-31T00:41:46.723Z,98331.53
2022-07-31T00:44:14.029Z,98309.22
2022-07-31T00:46:42.206Z,98325.69
2022-07-31T00:49:12.697Z,98334.78
2022-07-31T00:51:40.242Z,98339.25
2022-07-31T00:54:08.389Z,98328.63
2022-07-31T00:56:35.552Z,98318.16
2022-07-31T00:59:02.678Z,98326.81
2022-07-31T01:01:29.339Z,98329.66
2022-07-31T01:03:55.978Z,98314.53
2022-07-31T01:06:22.807Z,98341.25
2022-07-31T01:08:49.536Z,98330.81
2022-07-31T01:11:23.520Z,98325.31
2022-07-31T01:14:00.545Z,98337.94
2022-07-31T01:16:30.741Z,98333.66
2022-07-31T01:18:59.486Z,98308.56
2022-07-31T01:22:00.512Z,98331.38
2022-07-31T01:24:36.802Z,98340.94
2022-07-31T01:27:10.786Z,98339.13
2022-07-31T01:29:49.676Z,98315.09
2022-07-31T01:32:29.475Z,98321.50
2022-07-31T01:35:04.298Z,98320.03
2022-07-31T01:37:36.367Z,98329.91
2022-07-31T01:40:08.767Z,98318.44
2022-07-31T01:42:37.706Z,98337.19
2022-07-31T01:45:07.339Z,98332.50
2022-07-31T01:47:35.339Z,98322.53
2022-07-31T01:50:04.831Z,98321.13
2022-07-31T01:52:33.036Z,98316.47
2022-07-31T01:55:00.877Z,98318.75
2022-07-31T01:57:29.612Z,98343.19
2022-07-31T02:00:00.871Z,98334.75
2022-07-31T02:02:30.549Z,98314.34
2022-07-31T02:04:58.297Z,98324.00
2022-07-31T02:07:26.437Z,98328.97
2022-07-31T02:09:58.673Z,98324.56
2022-07-31T02:12:33.342Z,98333.91
2022-07-31T02:15:03.998Z,98321.31
2022-07-31T02:17:31.506Z,98304.97
2022-07-31T02:20:00.850Z,98297.25
2022-07-31T02:22:29.499Z,98317.91
2022-07-31T02:24:56.211Z,98318.06
2022-07-31T02:27:57.855Z,98318.44
2022-07-31T02:30:12.522Z,98320.97
2022-07-31T02:32:40.950Z,98315.88
2022-07-31T02:35:08.762Z,98320.03
2022-07-31T02:37:38.280Z,98323.75
2022-07-31T02:40:06.631Z,98322.34
2022-07-31T02:42:34.287Z,98301.00
2022-07-31T02:45:02.440Z,98328.41
2022-07-31T02:47:29.678Z,98323.38
2022-07-31T02:49:58.124Z,98304.09
2022-07-31T02:52:25.457Z,98299.09
2022-07-31T02:54:52.909Z,98298.72
2022-07-31T02:57:19.637Z,98298.41
2022-07-31T02:59:46.515Z,98302.69
2022-07-31T03:02:13.225Z,98301.66
2022-07-31T03:04:39.899Z,98300.41
2022-07-31T03:07:06.572Z,98291.16
2022-07-31T03:09:33.202Z,98277.38
2022-07-31T03:12:01.802Z,98294.84
2022-07-31T03:14:34.401Z,98313.78
2022-07-31T03:17:01.873Z,98307.44
2022-07-31T03:19:28.787Z,98307.03
2022-07-31T03:21:56.383Z,98292.22
2022-07-31T03:24:23.080Z,98296.53
2022-07-31T03:26:49.839Z,98273.41
2022-07-31T03:29:42.836Z,98283.28
2022-07-31T03:32:03.230Z,98257.19
2022-07-31T03:34:30.033Z,98286.34
2022-07-31T03:36:56.570Z,98291.75
2022-07-31T03:39:23.227Z,98291.16
2022-07-31T03:41:51.145Z,98288.53
2022-07-31T03:44:20.161Z,98301.94
2022-07-31T03:46:47.152Z,98279.72
2022-07-31T03:49:14.692Z,98292.28
2022-07-31T03:51:41.325Z,98297.69
2022-07-31T03:54:07.966Z,98284.94
2022-07-31T03:56:36.127Z,98282.66
2022-07-31T03:59:04.497Z,98283.19
2022-07-31T04:01:58.064Z,98294.94
2022-07-31T04:04:18.611Z,98305.88
2022-07-31T04:06:45.357Z,98296.22
2022-07-31T04:09:15.600Z,98270.25
2022-07-31T04:11:46.000Z,98285.94
2022-07-31T04:14:12.588Z,98283.28
2022-07-31T04:16:39.200Z,98294.81
2022-07-31T04:19:05.787Z,98306.16
2022-07-31T04:21:32.352Z,98294.22
2022-07-31T04:23:59.215Z,98305.78
2022-07-31T04:26:26.472Z,98303.94
2022-07-31T04:28:53.162Z,98283.16
2022-07-31T04:31:19.731Z,98308.69
2022-07-31T04:33:48.293Z,98311.63
2022-07-31T04:36:30.651Z,98307.91
2022-07-31T04:39:01.116Z,98309.31
2022-07-31T04:41:28.208Z,98313.44
2022-07-31T04:43:54.907Z,98298.41
2022-07-31T04:46:21.517Z,98308.09
2022-07-31T04:48:49.303Z,98287.28
2022-07-31T04:51:18.272Z,98279.84
2022-07-31T04:53:46.282Z,98312.59
2022-07-31T04:56:32.322Z,98306.22
2022-07-31T04:59:01.053Z,98287.06
2022-07-31T05:01:27.757Z,98308.28
2022-07-31T05:03:54.418Z,98297.53
2022-07-31T05:06:21.058Z,98292.84
2022-07-31T05:08:47.754Z,98303.13
2022-07-31T05:11:23.369Z,98315.09
2022-07-31T05:13:58.153Z,98320.59
2022-07-31T05:16:27.452Z,98332.75
2022-07-31T05:18:54.781Z,98330.28
2022-07-31T05:21:22.207Z,98332.09
2022-07-31T05:23:49.747Z,98301.97
2022-07-31T05:26:18.120Z,98324.47
2022-07-31T05:28:46.602Z,98327.81
2022-07-31T05:31:13.628Z,98323.25
2022-07-31T05:33:40.261Z,98298.88
2022-07-31T05:36:07.437Z,98311.06
2022-07-31T05:38:34.339Z,98296.44
2022-07-31T05:41:01.141Z,98317.19
2022-07-31T05:43:27.980Z,98324.72
2022-07-31T05:45:54.968Z,98324.25
2022-07-31T05:48:22.462Z,98323.34
2022-07-31T05:50:50.683Z,98316.25
2022-07-31T05:53:18.638Z,98308.34
2022-07-31T05:55:46.725Z,98316.91
2022-07-31T05:58:17.028Z,98302.28
2022-07-31T06:00:45.958Z,98317.22
2022-07-31T06:03:13.166Z,98311.84
2022-07-31T06:05:40.994Z,98311.25
2022-07-31T06:08:09.680Z,98300.50
2022-07-31T06:10:40.343Z,98288.63
2022-07-31T06:13:06.940Z,98313.31
2022-07-31T06:15:36.556Z,98298.81
2022-07-31T06:18:04.188Z,98308.75
2022-07-31T06:20:31.123Z,98307.31
2022-07-31T06:22:58.104Z,98323.38
2022-07-31T06:25:24.758Z,98294.75
2022-07-31T06:27:59.902Z,98304.22
2022-07-31T06:30:28.039Z,98280.88
2022-07-31T06:32:54.628Z,98282.50
2022-07-31T06:35:21.410Z,98318.78
2022-07-31T06:37:48.046Z,98315.88
2022-07-31T06:40:14.737Z,98312.00
2022-07-31T06:42:42.109Z,98311.09
2022-07-31T06:45:09.387Z,98332.66
2022-07-31T06:47:36.101Z,98325.13
2022-07-31T06:50:03.088Z,98316.00
2022-07-31T06:52:29.650Z,98318.44
2022-07-31T06:54:56.382Z,98320.53
2022-07-31T06:57:23.122Z,98323.91
2022-07-31T06:59:49.900Z,98317.69
2022-07-31T07:02:16.509Z,98323.94
2022-07-31T07:05:04.579Z,98322.63
2022-07-31T07:07:32.168Z,98314.00
2022-07-31T07:09:59.462Z,98321.00
2022-07-31T07:12:26.929Z,98295.91
2022-07-31T07:14:55.075Z,98319.19
2022-07-31T07:17:23.813Z,98306.06
2022-07-31T07:19:54.746Z,98326.78
2022-07-31T07:22:31.982Z,98298.00
2022-07-31T07:25:00.377Z,98330.56
2022-07-31T07:27:27.226Z,98328.78
2022-07-31T07:29:54.450Z,98331.28
2022-07-31T07:32:21.440Z,98326.13
2022-07-31T07:34:48.704Z,98325.28
2022-07-31T07:37:27.972Z,98324.97
2022-07-31T07:39:54.663Z,98328.34
2022-07-31T07:42:21.415Z,98322.78
2022-07-31T07:44:48.265Z,98316.13
2022-07-31T07:47:15.518Z,98330.13
2022-07-31T07:49:42.553Z,98322.88
2022-07-31T07:52:09.746Z,98312.06
2022-07-31T07:54:37.718Z,98306.94
2022-07-31T07:57:04.902Z,98317.81
2022-07-31T07:59:31.967Z,98313.25
2022-07-31T08:01:58.833Z,98305.66
2022-07-31T08:04:25.576Z,98311.16
2022-07-31T08:06:52.828Z,98298.63
2022-07-31T08:14:15.268Z,98313.00
2022-07-31T08:16:43.105Z,98311.09
2022-07-31T08:19:10.006Z,98302.00
2022-07-31T08:21:37.655Z,98276.75
2022-07-31T08:24:04.852Z,98299.06
2022-07-31T08:26:51.971Z,98306.09
2022-07-31T08:29:19.427Z,98294.53
2022-07-31T08:31:54.546Z,98304.19
2022-07-31T08:34:32.027Z,98304.03
2022-07-31T08:36:59.414Z,98300.34
2022-07-31T08:39:46.748Z,98301.00
2022-07-31T08:42:13.578Z,98304.09
2022-07-31T08:44:41.404Z,98296.97
2022-07-31T08:47:17.469Z,98302.78
2022-07-31T08:49:48.507Z,98293.41
2022-07-31T08:52:24.462Z,98299.38
2022-07-31T08:54:54.429Z,98293.59
2022-07-31T08:57:21.065Z,98294.00
2022-07-31T08:59:55.009Z,98301.31
2022-07-31T09:02:21.643Z,98299.13
2022-07-31T09:04:52.449Z,98303.53
2022-07-31T09:07:19.696Z,98304.13
2022-07-31T09:09:51.533Z,98308.69
2022-07-31T09:12:33.567Z,98294.63
2022-07-31T09:15:00.840Z,98288.41
2022-07-31T09:17:39.932Z,98299.19
2022-07-31T09:20:23.345Z,98293.72
2022-07-31T09:23:04.324Z,98300.34
2022-07-31T09:25:31.156Z,98293.94
2022-07-31T09:28:06.289Z,98295.13
2022-07-31T09:30:34.165Z,98297.69
2022-07-31T09:33:16.791Z,98309.31
2022-07-31T09:35:50.622Z,98296.41
2022-07-31T09:38:18.581Z,98288.63
2022-07-31T09:40:55.371Z,98299.59
2022-07-31T09:43:25.787Z,98292.50
2022-07-31T09:45:59.242Z,98293.81
2022-07-31T09:48:26.553Z,98286.56
2022-07-31T09:50:58.707Z,98293.22
2022-07-31T09:53:26.171Z,98291.97
2022-07-31T09:55:57.457Z,98291.69
2022-07-31T09:58:26.846Z,98287.72
2022-07-31T10:00:54.037Z,98285.78
2022-07-31T10:03:21.675Z,98280.53
2022-07-31T10:05:48.534Z,98278.06
2022-07-31T10:08:17.288Z,98280.81
2022-07-31T10:10:45.287Z,98275.16
2022-07-31T10:13:17.857Z,98278.69
2022-07-31T10:15:47.267Z,98269.75
2022-07-31T10:18:17.765Z,98280.78
2022-07-31T10:21:04.669Z,98284.50
2022-07-31T10:23:34.363Z,98279.91
2022-07-31T10:26:03.006Z,98269.13
2022-07-31T10:28:29.995Z,98266.81
2022-07-31T10:30:57.595Z,98273.66
2022-07-31T10:33:43.752Z,98268.09
2022-07-31T10:36:21.825Z,98269.56
2022-07-31T10:39:05.967Z,98265.09
2022-07-31T10:42:31.654Z,98265.19
2022-07-31T10:45:05.805Z,98265.44
2022-07-31T10:47:33.145Z,98262.13
2022-07-31T10:49:59.931Z,98267.53
2022-07-31T10:52:34.564Z,98257.63
2022-07-31T10:55:02.107Z,98249.34
2022-07-31T10:57:32.607Z,98248.97
2022-07-31T11:00:35.298Z,98245.84
2022-07-31T11:03:18.147Z,98246.63
2022-07-31T11:06:00.850Z,98243.44
2022-07-31T11:08:40.926Z,98243.22
2022-07-31T11:11:07.620Z,98232.25
2022-07-31T11:13:54.286Z,98223.75
2022-07-31T11:16:21.030Z,98230.19
2022-07-31T11:19:04.840Z,98228.38
2022-07-31T11:21:40.715Z,98221.31
2022-07-31T11:24:21.932Z,98221.31
2022-07-31T11:26:55.479Z,98229.31
2022-07-31T11:30:01.552Z,98222.50
2022-07-31T11:32:25.095Z,98213.44
2022-07-31T11:34:57.115Z,98227.16
2022-07-31T11:37:44.108Z,98216.28
2022-07-31T11:40:13.388Z,98218.53
2022-07-31T11:42:46.373Z,98208.47
2022-07-31T11:45:16.742Z,98218.09
2022-07-31T11:48:11.674Z,98210.31
2022-07-31T11:50:42.051Z,98200.22
2022-07-31T11:53:09.268Z,98194.28
2022-07-31T11:56:00.701Z,98194.91
2022-07-31T11:58:29.693Z,98193.22
2022-07-31T12:01:02.271Z,98193.41
2022-07-31T12:03:32.449Z,98199.56
2022-07-31T12:05:59.945Z,98199.09
2022-07-31T12:08:27.716Z,98214.22
2022-07-31T12:11:00.121Z,98187.94
2022-07-31T12:13:28.824Z,98185.38
2022-07-31T12:16:04.295Z,98193.16
2022-07-31T12:18:45.016Z,98185.75
2022-07-31T12:21:14.534Z,98190.84
2022-07-31T12:23:52.484Z,98185.56
2022-07-31T12:26:29.586Z,98182.75
2022-07-31T12:29:00.347Z,98175.91
2022-07-31T12:31:28.645Z,98174.38
2022-07-31T12:33:55.737Z,98180.50
2022-07-31T12:36:22.798Z,98177.75
2022-07-31T12:39:03.971Z,98182.44
2022-07-31T12:41:31.914Z,98179.81
2022-07-31T12:44:13.451Z,98181.91
2022-07-31T12:46:42.036Z,98176.78
2022-07-31T12:49:09.694Z,98172.03
2022-07-31T12:51:44.942Z,98170.56
2022-07-31T12:54:18.129Z,98173.09
2022-07-31T12:56:47.113Z,98148.22
2022-07-31T12:59:15.484Z,98163.28
2022-07-31T13:01:42.528Z,98154.56
2022-07-31T13:04:18.206Z,98151.59
2022-07-31T13:06:48.900Z,98141.78
2022-07-31T13:09:16.386Z,98146.22
2022-07-31T13:11:46.937Z,98151.03
2022-07-31T13:14:20.501Z,98138.13
2022-07-31T13:16:49.304Z,98149.25
2022-07-31T13:19:16.106Z,98160.97
2022-07-31T13:21:49.113Z,98150.16
2022-07-31T13:24:16.950Z,98128.19
2022-07-31T13:26:45.284Z,98135.34
2022-07-31T13:29:12.190Z,98135.47
2022-07-31T13:31:39.325Z,98124.50
2022-07-31T13:34:06.164Z,98133.03
2022-07-31T13:36:35.968Z,98128.72
2022-07-31T13:39:05.732Z,98115.34
2022-07-31T13:41:36.085Z,98128.91
2022-07-31T13:44:05.579Z,98130.16
2022-07-31T13:46:32.217Z,98112.78
2022-07-31T13:48:59.721Z,98119.00
2022-07-31T13:51:29.319Z,98118.25
2022-07-31T13:53:58.868Z,98103.69
2022-07-31T13:56:39.666Z,98118.88
2022-07-31T13:59:11.797Z,98106.31
2022-07-31T14:02:03.958Z,98101.94
2022-07-31T14:04:32.213Z,98097.63
2022-07-31T14:07:01.120Z,98086.81
2022-07-31T14:09:28.266Z,98095.66
2022-07-31T14:11:57.210Z,98101.00
2022-07-31T14:14:24.009Z,98091.41
2022-07-31T14:16:50.749Z,98096.25
2022-07-31T14:19:17.393Z,98073.22
2022-07-31T14:21:56.111Z,98082.28
2022-07-31T14:24:27.293Z,98080.09
2022-07-31T14:26:53.910Z,98068.03
2022-07-31T14:29:20.738Z,98073.72
2022-07-31T14:31:51.659Z,98063.56
2022-07-31T14:34:18.263Z,98087.50
2022-07-31T14:36:44.801Z,98085.94
2022-07-31T14:39:12.545Z,98073.69
2022-07-31T14:41:40.580Z,98095.75
2022-07-31T14:44:07.196Z,98083.38
2022-07-31T14:46:33.787Z,98084.94
2022-07-31T14:49:02.672Z,98086.63
2022-07-31T14:51:29.388Z,98082.34
2022-07-31T14:53:59.698Z,98080.91
2022-07-31T14:56:58.401Z,98070.56
2022-07-31T14:59:15.752Z,98075.16
2022-07-31T15:01:42.532Z,98073.78
2022-07-31T15:04:12.430Z,98059.31
2022-07-31T15:06:51.472Z,98071.66
2022-07-31T15:09:32.116Z,98062.59
2022-07-31T15:12:01.112Z,98065.72
2022-07-31T15:14:29.606Z,98063.41
2022-07-31T15:16:58.920Z,98065.25
2022-07-31T15:19:27.981Z,98070.84
2022-07-31T15:22:10.568Z,98065.81
2022-07-31T15:24:48.454Z,98064.59
2022-07-31T15:27:18.064Z,98055.88
2022-07-31T15:30:05.196Z,98046.16
2022-07-31T15:32:31.232Z,98034.97
2022-07-31T15:34:57.785Z,98065.22
2022-07-31T15:37:24.380Z,98042.38
2022-07-31T15:40:02.128Z,98050.66
2022-07-31T15:42:31.937Z,98053.91
2022-07-31T15:44:58.846Z,98050.75
2022-07-31T15:47:27.947Z,98044.59
2022-07-31T15:49:56.597Z,98050.75
2022-07-31T15:52:23.676Z,98040.16
2022-07-31T15:54:51.667Z,98034.97
2022-07-31T15:57:22.327Z,98027.66
2022-07-31T15:59:50.469Z,98042.22
2022-07-31T16:02:17.770Z,98023.63
2022-07-31T16:04:51.513Z,98037.66
2022-07-31T16:08:29.508Z,98036.47
2022-07-31T16:10:16.193Z,98018.41
2022-07-31T16:12:46.873Z,98008.59
2022-07-31T16:15:14.169Z,98020.69
2022-07-31T16:17:41.151Z,98032.13
2022-07-31T16:20:26.038Z,98031.22
2022-07-31T16:22:59.193Z,98035.59
2022-07-31T16:25:32.120Z,98022.59
2022-07-31T16:28:01.760Z,98016.75
2022-07-31T16:30:28.437Z,98028.38
2022-07-31T16:32:57.371Z,98023.84
2022-07-31T16:35:26.376Z,98021.88
2022-07-31T16:37:54.124Z,98012.00
2022-07-31T16:40:31.889Z,98017.03
2022-07-31T16:43:01.392Z,98001.44
2022-07-31T16:45:29.067Z,98011.53
2022-07-31T16:47:58.803Z,98016.84
2022-07-31T16:50:25.934Z,98006.75
2022-07-31T16:52:54.792Z,98009.81
2022-07-31T16:55:46.979Z,98011.47
2022-07-31T16:58:11.329Z,98007.69
2022-07-31T17:00:39.307Z,98000.44
2022-07-31T17:03:06.305Z,98009.38
2022-07-31T17:05:32.892Z,97984.28
2022-07-31T17:07:59.504Z,98000.03
2022-07-31T17:10:29.757Z,97999.69
2022-07-31T17:12:59.352Z,98009.25
2022-07-31T17:15:29.143Z,98001.31
2022-07-31T17:17:58.612Z,97998.38
2022-07-31T17:20:25.607Z,98007.63
2022-07-31T17:22:56.358Z,97989.94
2022-07-31T17:25:23.217Z,98000.44
2022-07-31T17:27:51.776Z,97999.13
2022-07-31T17:30:18.358Z,98008.84
2022-07-31T17:32:44.999Z,98021.91
2022-07-31T17:35:13.703Z,97996.09
2022-07-31T17:37:40.498Z,97999.78
2022-07-31T17:40:27.227Z,98012.19
2022-07-31T17:42:54.724Z,97997.56
2022-07-31T17:45:21.460Z,97992.78
2022-07-31T17:47:50.299Z,98000.44
2022-07-31T17:50:30.559Z,98021.25
2022-07-31T17:52:58.629Z,98014.00
2022-07-31T17:55:25.271Z,98012.22
2022-07-31T17:57:51.951Z,98028.16
2022-07-31T18:00:19.291Z,98022.28
2022-07-31T18:05:28.590Z,98031.38
2022-07-31T18:07:55.226Z,98012.78
2022-07-31T18:10:32.629Z,98035.06
2022-07-31T18:15:49.405Z,98008.16
2022-07-31T18:18:16.252Z,98042.34
2022-07-31T18:20:45.251Z,98045.72
2022-07-31T18:23:12.112Z,98037.63
2022-07-31T18:25:41.323Z,98044.38
2022-07-31T18:28:08.867Z,98057.63
2022-07-31T18:30:38.895Z,98062.38
2022-07-31T18:33:06.091Z,98053.81
2022-07-31T18:35:32.835Z,98067.84
2022-07-31T18:37:59.489Z,98060.66
2022-07-31T18:40:26.105Z,98074.41
2022-07-31T18:42:52.728Z,98071.81
2022-07-31T18:45:19.255Z,98069.47
2022-07-31T18:47:46.166Z,98073.41
2022-07-31T18:50:58.700Z,98076.50
2022-07-31T18:53:00.118Z,98073.88
2022-07-31T18:55:29.370Z,98072.91
2022-07-31T18:57:59.517Z,98062.94
2022-07-31T19:00:26.539Z,98071.69
2022-07-31T19:02:53.117Z,98071.81
2022-07-31T19:05:21.486Z,98080.34
2022-07-31T19:07:48.882Z,98064.34
2022-07-31T19:10:30.932Z,98073.38
2022-07-31T19:12:59.251Z,98074.81
2022-07-31T19:15:26.219Z,98072.69
2022-07-31T19:17:52.736Z,98073.56
2022-07-31T19:20:56.488Z,98068.72
2022-07-31T19:23:14.932Z,98082.91
2022-07-31T19:26:02.640Z,98086.78
2022-07-31T19:28:31.294Z,98077.88
2022-07-31T19:30:58.582Z,98086.63
2022-07-31T19:33:25.520Z,98075.78
2022-07-31T19:35:58.295Z,98091.84
2022-07-31T19:38:28.657Z,98085.06
2022-07-31T19:40:55.947Z,98087.56
2022-07-31T19:43:22.589Z,98088.69
2022-07-31T19:46:09.350Z,98098.50
2022-07-31T19:48:36.708Z,98102.38
2022-07-31T19:51:04.199Z,98110.03
2022-07-31T19:53:30.763Z,98111.66
2022-07-31T19:55:57.469Z,98109.19
2022-07-31T19:58:24.234Z,98113.56
2022-07-31T20:00:51.118Z,98106.78
2022-07-31T20:03:17.751Z,98126.09
2022-07-31T20:05:44.382Z,98123.34
2022-07-31T20:08:11.037Z,98120.94
2022-07-31T20:10:37.597Z,98125.78
2022-07-31T20:13:04.265Z,98123.63
2022-07-31T20:15:50.988Z,98130.38
2022-07-31T20:18:27.602Z,98127.88
2022-07-31T20:20:57.351Z,98127.88
2022-07-31T20:23:24.951Z,98135.75
2022-07-31T20:25:51.519Z,98137.06
2022-07-31T20:28:18.067Z,98138.38
2022-07-31T20:30:44.653Z,98137.78
2022-07-31T20:33:13.451Z,98136.16
2022-07-31T20:35:47.760Z,98137.19
2022-07-31T20:38:17.410Z,98127.69
2022-07-31T20:40:53.823Z,98131.13
2022-07-31T20:43:25.685Z,98129.47
2022-07-31T20:45:53.938Z,98137.81
2022-07-31T20:48:24.189Z,98121.41
2022-07-31T20:50:52.522Z,98127.31
2022-07-31T20:53:21.056Z,98142.19
2022-07-31T20:55:49.946Z,98115.88
2022-07-31T20:58:21.169Z,98112.56
2022-07-31T21:00:52.600Z,98132.44
2022-07-31T21:03:20.057Z,98124.44
2022-07-31T21:05:48.083Z,98127.13
2022-07-31T21:08:16.547Z,98130.63
2022-07-31T21:10:44.529Z,98139.00
2022-07-31T21:13:12.006Z,98129.66
2022-07-31T21:15:42.608Z,98107.28
2022-07-31T21:18:20.469Z,98122.72
2022-07-31T21:20:51.551Z,98110.56
2022-07-31T21:23:24.288Z,98104.47
2022-07-31T21:25:56.671Z,98106.56
2022-07-31T21:28:25.716Z,98107.81
2022-07-31T21:30:58.378Z,98104.16
2022-07-31T21:33:27.351Z,98140.06
2022-07-31T21:35:57.353Z,98141.34
2022-07-31T21:38:27.921Z,98109.97
2022-07-31T21:40:55.792Z,98126.50
2022-07-31T21:43:23.153Z,98124.81
2022-07-31T21:45:57.890Z,98130.38
2022-07-31T21:48:30.244Z,98124.28
2022-07-31T21:50:57.764Z,98124.19
2022-07-31T21:53:25.007Z,98121.63
2022-07-31T21:55:52.048Z,98161.41
2022-07-31T21:58:19.358Z,98135.66
2022-07-31T22:00:46.228Z,98132.06
2022-07-31T22:03:13.095Z,98125.59
2022-07-31T22:05:58.781Z,98127.25
2022-07-31T22:08:25.775Z,98139.13
2022-07-31T22:10:53.507Z,98113.72
2022-07-31T22:13:20.674Z,98124.78
2022-07-31T22:15:55.666Z,98138.97
2022-07-31T22:18:29.347Z,98148.53
2022-07-31T22:20:59.665Z,98127.22
2022-07-31T22:23:27.995Z,98140.84
2022-07-31T22:25:55.261Z,98130.97
2022-07-31T22:28:23.975Z,98129.88
2022-07-31T22:30:52.010Z,98163.28
2022-07-31T22:33:19.479Z,98146.31
2022-07-31T22:35:58.452Z,98174.38
2022-07-31T22:38:28.142Z,98143.75
2022-07-31T22:40:55.244Z,98163.00
2022-07-31T22:44:10.710Z,98152.50
2022-07-31T22:46:11.699Z,98164.69
2022-07-31T22:48:40.991Z,98142.22
2022-07-31T22:51:08.886Z,98188.00
2022-07-31T22:53:38.601Z,98168.16
2022-07-31T22:56:08.468Z,98147.75
2022-07-31T22:58:38.340Z,98150.19
2022-07-31T23:01:07.808Z,98151.97
2022-07-31T23:03:37.724Z,98147.28
2022-07-31T23:06:31.076Z,98157.94
2022-07-31T23:08:54.881Z,98182.22
2022-07-31T23:11:22.297Z,98182.56
2022-07-31T23:13:49.095Z,98141.56
2022-07-31T23:16:15.977Z,98159.25
2022-07-31T23:18:42.722Z,98164.78
2022-07-31T23:21:09.797Z,98172.63
2022-07-31T23:23:40.403Z,98144.28
2022-07-31T23:26:10.524Z,98164.78
2022-07-31T23:28:40.430Z,98159.97
2022-07-31T23:31:08.713Z,98171.47
2022-07-31T23:33:35.690Z,98167.81
2022-07-31T23:36:02.624Z,98139.50
2022-07-31T23:38:29.461Z,98142.41
2022-07-31T23:40:56.654Z,98184.47
2022-07-31T23:43:23.951Z,98184.25
2022-07-31T23:45:51.099Z,98149.00
2022-07-31T23:48:19.285Z,98146.78
2022-07-31T23:50:47.837Z,98134.53
2022-07-31T23:53:18.412Z,98144.19
2022-07-31T23:55:45.274Z,98180.88
2022-07-31T23:58:12.171Z,98166.69
